sensor_id;sensor_type;location;lat;lon;timestamp;pressure;altitude;pressure_sealevel;temperature;humidity
43420;BME280;29017;51.514;-0.178;2023-02-22T00:01:53;100831.66;;;10.25;86.03
43420;BME280;29017;51.514;-0.178;2023-02-22T00:04:36;100819.47;;;10.24;87.13
43420;BME280;29017;51.514;-0.178;2023-02-22T00:07:05;100821.13;;;10.25;88.16
43420;BME280;29017;51.514;-0.178;2023-02-22T00:09:32;100821.97;;;10.25;88.16
43420;BME280;29017;51.514;-0.178;2023-02-22T00:11:59;100818.50;;;10.25;87.89
43420;BME280;29017;51.514;-0.178;2023-02-22T00:14:26;100821.28;;;10.23;88.96
43420;BME280;29017;51.514;-0.178;2023-02-22T00:16:54;100815.19;;;10.23;89.06
43420;BME280;29017;51.514;-0.178;2023-02-22T00:19:25;100810.25;;;10.20;89.29
43420;BME280;29017;51.514;-0.178;2023-02-22T00:21:53;100804.28;;;10.18;89.38
43420;BME280;29017;51.514;-0.178;2023-02-22T00:24:20;100797.50;;;10.15;90.04
43420;BME280;29017;51.514;-0.178;2023-02-22T00:26:51;100784.66;;;10.12;89.86
43420;BME280;29017;51.514;-0.178;2023-02-22T00:29:18;100790.38;;;10.08;89.03
43420;BME280;29017;51.514;-0.178;2023-02-22T00:31:44;100793.44;;;10.03;89.72
43420;BME280;29017;51.514;-0.178;2023-02-22T00:34:12;100794.88;;;9.98;90.31
43420;BME280;29017;51.514;-0.178;2023-02-22T00:39:09;100797.88;;;9.85;90.89
43420;BME280;29017;51.514;-0.178;2023-02-22T00:41:36;100812.13;;;9.82;91.20
43420;BME280;29017;51.514;-0.178;2023-02-22T00:44:03;100819.03;;;9.83;91.63
43420;BME280;29017;51.514;-0.178;2023-02-22T00:46:30;100810.19;;;9.84;92.47
43420;BME280;29017;51.514;-0.178;2023-02-22T00:48:57;100814.63;;;9.84;92.39
43420;BME280;29017;51.514;-0.178;2023-02-22T00:51:24;100815.13;;;9.87;93.23
43420;BME280;29017;51.514;-0.178;2023-02-22T00:53:52;100814.44;;;9.85;92.55
43420;BME280;29017;51.514;-0.178;2023-02-22T00:56:19;100814.63;;;9.84;92.50
43420;BME280;29017;51.514;-0.178;2023-02-22T00:58:46;100802.75;;;9.80;92.05
43420;BME280;29017;51.514;-0.178;2023-02-22T01:01:13;100801.94;;;9.79;92.04
43420;BME280;29017;51.514;-0.178;2023-02-22T01:03:40;100804.56;;;9.79;92.44
43420;BME280;29017;51.514;-0.178;2023-02-22T01:06:07;100801.31;;;9.85;93.32
43420;BME280;29017;51.514;-0.178;2023-02-22T01:08:34;100798.84;;;9.84;93.29
43420;BME280;29017;51.514;-0.178;2023-02-22T01:11:01;100802.59;;;9.81;93.29
43420;BME280;29017;51.514;-0.178;2023-02-22T01:13:28;100802.75;;;9.80;93.13
43420;BME280;29017;51.514;-0.178;2023-02-22T01:15:55;100796.13;;;9.76;92.49
43420;BME280;29017;51.514;-0.178;2023-02-22T01:18:23;100791.41;;;9.79;93.05
43420;BME280;29017;51.514;-0.178;2023-02-22T01:20:51;100786.44;;;9.76;93.13
43420;BME280;29017;51.514;-0.178;2023-02-22T01:23:18;100794.31;;;9.76;92.95
43420;BME280;29017;51.514;-0.178;2023-02-22T01:25:45;100787.72;;;9.72;93.20
43420;BME280;29017;51.514;-0.178;2023-02-22T01:28:12;100785.09;;;9.72;93.32
43420;BME280;29017;51.514;-0.178;2023-02-22T01:30:39;100787.34;;;9.67;92.39
43420;BME280;29017;51.514;-0.178;2023-02-22T01:33:06;100777.66;;;9.68;92.68
43420;BME280;29017;51.514;-0.178;2023-02-22T01:35:35;100781.78;;;9.70;93.32
43420;BME280;29017;51.514;-0.178;2023-02-22T01:38:02;100777.91;;;9.74;93.47
43420;BME280;29017;51.514;-0.178;2023-02-22T01:40:31;100777.72;;;9.76;93.33
43420;BME280;29017;51.514;-0.178;2023-02-22T01:43:00;100774.13;;;9.77;93.34
43420;BME280;29017;51.514;-0.178;2023-02-22T01:50:26;100772.09;;;9.71;92.72
43420;BME280;29017;51.514;-0.178;2023-02-22T01:52:53;100774.91;;;9.69;92.71
43420;BME280;29017;51.514;-0.178;2023-02-22T01:55:20;100770.59;;;9.68;92.85
43420;BME280;29017;51.514;-0.178;2023-02-22T01:57:47;100781.78;;;9.70;93.46
43420;BME280;29017;51.514;-0.178;2023-02-22T02:00:15;100781.78;;;9.70;93.77
43420;BME280;29017;51.514;-0.178;2023-02-22T02:02:48;100763.69;;;9.67;93.28
43420;BME280;29017;51.514;-0.178;2023-02-22T02:05:16;100769.41;;;9.63;92.47
43420;BME280;29017;51.514;-0.178;2023-02-22T02:07:44;100769.53;;;9.61;92.65
43420;BME280;29017;51.514;-0.178;2023-02-22T02:10:13;100768.56;;;9.62;92.85
43420;BME280;29017;51.514;-0.178;2023-02-22T02:12:42;100761.81;;;9.60;92.74
43420;BME280;29017;51.514;-0.178;2023-02-22T02:17:39;100765.50;;;9.67;93.63
43420;BME280;29017;51.514;-0.178;2023-02-22T02:40:04;100744.78;;;9.64;92.78
43420;BME280;29017;51.514;-0.178;2023-02-22T02:42:38;100738.69;;;9.63;93.10
43420;BME280;29017;51.514;-0.178;2023-02-22T02:45:10;100739.53;;;9.64;93.28
43420;BME280;29017;51.514;-0.178;2023-02-22T02:47:41;100737.44;;;9.67;93.77
43420;BME280;29017;51.514;-0.178;2023-02-22T02:52:41;100732.53;;;9.72;93.70
43420;BME280;29017;51.514;-0.178;2023-02-22T02:55:10;100724.81;;;9.71;93.32
43420;BME280;29017;51.514;-0.178;2023-02-22T02:57:38;100730.06;;;9.71;93.00
43420;BME280;29017;51.514;-0.178;2023-02-22T03:00:06;100717.75;;;9.71;93.08
43420;BME280;29017;51.514;-0.178;2023-02-22T03:12:37;100707.69;;;9.67;91.98
43420;BME280;29017;51.514;-0.178;2023-02-22T03:17:42;100706.88;;;9.66;92.33
43420;BME280;29017;51.514;-0.178;2023-02-22T03:20:14;100701.47;;;9.68;92.24
43420;BME280;29017;51.514;-0.178;2023-02-22T03:22:49;100696.09;;;9.69;92.32
43420;BME280;29017;51.514;-0.178;2023-02-22T03:27:56;100694.09;;;9.71;92.44
43420;BME280;29017;51.514;-0.178;2023-02-22T03:32:58;100686.41;;;9.70;91.59
43420;BME280;29017;51.514;-0.178;2023-02-22T03:35:27;100687.75;;;9.74;92.20
43420;BME280;29017;51.514;-0.178;2023-02-22T03:37:57;100680.84;;;9.73;92.50
43420;BME280;29017;51.514;-0.178;2023-02-22T03:40:27;100678.53;;;9.70;92.70
43420;BME280;29017;51.514;-0.178;2023-02-22T03:42:57;100676.03;;;9.68;92.40
43420;BME280;29017;51.514;-0.178;2023-02-22T03:45:26;100677.84;;;9.68;92.70
43420;BME280;29017;51.514;-0.178;2023-02-22T03:50:25;100678.53;;;9.70;92.84
43420;BME280;29017;51.514;-0.178;2023-02-22T03:52:55;100667.84;;;9.71;93.34
43420;BME280;29017;51.514;-0.178;2023-02-22T03:55:24;100659.97;;;9.71;93.31
43420;BME280;29017;51.514;-0.178;2023-02-22T03:57:53;100658.31;;;9.70;93.09
43420;BME280;29017;51.514;-0.178;2023-02-22T04:00:23;100656.69;;;9.69;92.97
43420;BME280;29017;51.514;-0.178;2023-02-22T04:02:51;100655.66;;;9.70;92.99
43420;BME280;29017;51.514;-0.178;2023-02-22T04:05:18;100654.72;;;9.71;92.78
43420;BME280;29017;51.514;-0.178;2023-02-22T04:07:45;100659.31;;;9.69;92.47
43420;BME280;29017;51.514;-0.178;2023-02-22T04:10:12;100654.34;;;9.66;91.83
43420;BME280;29017;51.514;-0.178;2023-02-22T04:12:39;100647.41;;;9.65;92.13
43420;BME280;29017;51.514;-0.178;2023-02-22T04:15:06;100647.28;;;9.67;92.10
43420;BME280;29017;51.514;-0.178;2023-02-22T04:17:34;100650.59;;;9.69;92.63
43420;BME280;29017;51.514;-0.178;2023-02-22T04:20:01;100659.91;;;9.63;92.20
43420;BME280;29017;51.514;-0.178;2023-02-22T04:22:29;100660.72;;;9.64;92.92
43420;BME280;29017;51.514;-0.178;2023-02-22T04:24:56;100653.69;;;9.64;93.02
43420;BME280;29017;51.514;-0.178;2023-02-22T04:27:23;100652.84;;;9.64;92.66
43420;BME280;29017;51.514;-0.178;2023-02-22T04:29:49;100645.09;;;9.62;92.41
43420;BME280;29017;51.514;-0.178;2023-02-22T04:32:16;100641.50;;;9.63;92.33
43420;BME280;29017;51.514;-0.178;2023-02-22T04:34:43;100651.06;;;9.64;92.58
43420;BME280;29017;51.514;-0.178;2023-02-22T04:37:10;100635.81;;;9.68;92.92
43420;BME280;29017;51.514;-0.178;2023-02-22T04:39:38;100645.34;;;9.69;92.46
43420;BME280;29017;51.514;-0.178;2023-02-22T04:42:05;100644.78;;;9.65;92.64
43420;BME280;29017;51.514;-0.178;2023-02-22T04:44:31;100642.84;;;9.67;92.49
43420;BME280;29017;51.514;-0.178;2023-02-22T04:46:58;100643.00;;;9.66;92.67
43420;BME280;29017;51.514;-0.178;2023-02-22T04:49:25;100641.19;;;9.66;92.76
43420;BME280;29017;51.514;-0.178;2023-02-22T04:51:52;100638.56;;;9.66;92.96
43420;BME280;29017;51.514;-0.178;2023-02-22T04:54:19;100633.19;;;9.68;92.66
43420;BME280;29017;51.514;-0.178;2023-02-22T04:56:46;100632.34;;;9.67;92.21
43420;BME280;29017;51.514;-0.178;2023-02-22T04:59:13;100628.75;;;9.68;92.25
43420;BME280;29017;51.514;-0.178;2023-02-22T05:01:40;100624.31;;;9.69;92.26
43420;BME280;29017;51.514;-0.178;2023-02-22T05:04:07;100621.53;;;9.70;92.29
43420;BME280;29017;51.514;-0.178;2023-02-22T05:06:34;100616.44;;;9.69;92.60
43420;BME280;29017;51.514;-0.178;2023-02-22T05:09:01;100626.94;;;9.69;92.28
43420;BME280;29017;51.514;-0.178;2023-02-22T05:11:28;100631.53;;;9.67;92.38
43420;BME280;29017;51.514;-0.178;2023-02-22T05:13:55;100621.63;;;9.61;92.19
43420;BME280;29017;51.514;-0.178;2023-02-22T05:16:22;100620.78;;;9.60;92.77
43420;BME280;29017;51.514;-0.178;2023-02-22T05:18:49;100635.28;;;9.64;93.21
43420;BME280;29017;51.514;-0.178;2023-02-22T05:21:16;100626.25;;;9.67;93.18
43420;BME280;29017;51.514;-0.178;2023-02-22T05:23:43;100625.97;;;9.70;93.50
43420;BME280;29017;51.514;-0.178;2023-02-22T05:26:10;100618.91;;;9.70;93.76
43420;BME280;29017;51.514;-0.178;2023-02-22T05:28:37;100623.34;;;9.70;93.93
43420;BME280;29017;51.514;-0.178;2023-02-22T05:31:04;100620.56;;;9.71;94.40
43420;BME280;29017;51.514;-0.178;2023-02-22T05:33:32;100621.25;;;9.73;94.74
43420;BME280;29017;51.514;-0.178;2023-02-22T05:35:59;100613.63;;;9.70;94.22
43420;BME280;29017;51.514;-0.178;2023-02-22T05:38:26;100622.81;;;9.66;94.45
43420;BME280;29017;51.514;-0.178;2023-02-22T05:40:53;100618.25;;;9.68;94.71
43420;BME280;29017;51.514;-0.178;2023-02-22T05:43:20;100619.59;;;9.72;95.86
43420;BME280;29017;51.514;-0.178;2023-02-22T05:45:47;100627.97;;;9.76;96.05
43420;BME280;29017;51.514;-0.178;2023-02-22T05:48:14;100624.22;;;9.78;95.69
43420;BME280;29017;51.514;-0.178;2023-02-22T05:50:41;100622.91;;;9.74;94.95
43420;BME280;29017;51.514;-0.178;2023-02-22T05:53:09;100620.56;;;9.71;94.53
43420;BME280;29017;51.514;-0.178;2023-02-22T05:55:36;100617.78;;;9.73;94.95
43420;BME280;29017;51.514;-0.178;2023-02-22T05:58:03;100612.84;;;9.70;94.57
43420;BME280;29017;51.514;-0.178;2023-02-22T06:00:31;100605.94;;;9.69;94.98
43420;BME280;29017;51.514;-0.178;2023-02-22T06:03:00;100610.50;;;9.67;94.68
43420;BME280;29017;51.514;-0.178;2023-02-22T06:05:28;100616.72;;;9.66;94.73
43420;BME280;29017;51.514;-0.178;2023-02-22T06:07:55;100605.09;;;9.68;94.89
43420;BME280;29017;51.514;-0.178;2023-02-22T06:10:22;100615.47;;;9.70;94.75
43420;BME280;29017;51.514;-0.178;2023-02-22T06:12:49;100616.28;;;9.70;94.91
43420;BME280;29017;51.514;-0.178;2023-02-22T06:15:17;100619.59;;;9.72;95.39
43420;BME280;29017;51.514;-0.178;2023-02-22T06:17:44;100617.09;;;9.71;95.39
43420;BME280;29017;51.514;-0.178;2023-02-22T06:20:12;100611.69;;;9.72;95.01
43420;BME280;29017;51.514;-0.178;2023-02-22T06:22:39;100607.13;;;9.74;95.24
43420;BME280;29017;51.514;-0.178;2023-02-22T06:25:07;100611.34;;;9.67;94.42
43420;BME280;29017;51.514;-0.178;2023-02-22T06:27:35;100602.63;;;9.67;94.93
43420;BME280;29017;51.514;-0.178;2023-02-22T06:30:03;100606.44;;;9.72;95.77
43420;BME280;29017;51.514;-0.178;2023-02-22T06:32:30;100601.19;;;9.72;95.47
43420;BME280;29017;51.514;-0.178;2023-02-22T06:34:57;100597.59;;;9.73;95.17
43420;BME280;29017;51.514;-0.178;2023-02-22T06:37:24;100601.19;;;9.72;94.83
43420;BME280;29017;51.514;-0.178;2023-02-22T06:39:51;100606.44;;;9.72;95.07
43420;BME280;29017;51.514;-0.178;2023-02-22T06:42:18;100612.53;;;9.73;94.93
43420;BME280;29017;51.514;-0.178;2023-02-22T06:44:45;100612.53;;;9.73;95.21
43420;BME280;29017;51.514;-0.178;2023-02-22T06:47:12;100623.53;;;9.76;95.94
43420;BME280;29017;51.514;-0.178;2023-02-22T06:49:39;100627.16;;;9.75;95.50
43420;BME280;29017;51.514;-0.178;2023-02-22T06:52:06;100625.34;;;9.76;95.48
43420;BME280;29017;51.514;-0.178;2023-02-22T06:54:34;100622.91;;;9.74;95.58
43420;BME280;29017;51.514;-0.178;2023-02-22T06:57:01;100621.88;;;9.75;95.68
43420;BME280;29017;51.514;-0.178;2023-02-22T06:59:28;100626.63;;;9.72;95.72
43420;BME280;29017;51.514;-0.178;2023-02-22T07:01:55;100627.56;;;9.63;95.12
43420;BME280;29017;51.514;-0.178;2023-02-22T07:04:22;100623.28;;;9.62;95.47
43420;BME280;29017;51.514;-0.178;2023-02-22T07:06:49;100626.41;;;9.65;96.16
43420;BME280;29017;51.514;-0.178;2023-02-22T07:09:17;100626.41;;;9.65;96.11
43420;BME280;29017;51.514;-0.178;2023-02-22T07:11:44;100626.59;;;9.64;95.71
43420;BME280;29017;51.514;-0.178;2023-02-22T07:14:11;100622.16;;;9.64;96.01
43420;BME280;29017;51.514;-0.178;2023-02-22T07:16:37;100626.94;;;9.69;96.39
43420;BME280;29017;51.514;-0.178;2023-02-22T07:19:04;100632.84;;;9.71;96.44
43420;BME280;29017;51.514;-0.178;2023-02-22T07:21:31;100631.22;;;9.70;96.82
43420;BME280;29017;51.514;-0.178;2023-02-22T07:23:58;100635.50;;;9.71;97.02
43420;BME280;29017;51.514;-0.178;2023-02-22T07:26:26;100635.34;;;9.72;96.84
43420;BME280;29017;51.514;-0.178;2023-02-22T07:28:53;100636.03;;;9.74;96.88
43420;BME280;29017;51.514;-0.178;2023-02-22T07:31:20;100644.56;;;9.76;97.20
43420;BME280;29017;51.514;-0.178;2023-02-22T07:33:47;100635.72;;;9.77;97.08
43420;BME280;29017;51.514;-0.178;2023-02-22T07:36:14;100639.03;;;9.79;97.09
43420;BME280;29017;51.514;-0.178;2023-02-22T07:38:43;100647.06;;;9.78;96.59
43420;BME280;29017;51.514;-0.178;2023-02-22T07:41:11;100640.97;;;9.77;96.83
43420;BME280;29017;51.514;-0.178;2023-02-22T07:43:38;100650.19;;;9.81;97.08
43420;BME280;29017;51.514;-0.178;2023-02-22T07:46:05;100654.16;;;9.85;97.19
43420;BME280;29017;51.514;-0.178;2023-02-22T07:48:33;100645.16;;;9.88;97.68
43420;BME280;29017;51.514;-0.178;2023-02-22T07:51:00;100644.69;;;9.93;98.08
43420;BME280;29017;51.514;-0.178;2023-02-22T07:53:28;100644.00;;;9.91;97.90
43420;BME280;29017;51.514;-0.178;2023-02-22T07:55:56;100645.97;;;9.88;97.47
43420;BME280;29017;51.514;-0.178;2023-02-22T07:58:24;100652.94;;;9.98;98.97
43420;BME280;29017;51.514;-0.178;2023-02-22T08:00:51;100658.56;;;10.03;99.51
43420;BME280;29017;51.514;-0.178;2023-02-22T08:03:19;100651.00;;;10.00;98.95
43420;BME280;29017;51.514;-0.178;2023-02-22T08:05:48;100657.69;;;9.94;98.05
43420;BME280;29017;51.514;-0.178;2023-02-22T08:08:15;100659.63;;;9.92;97.84
43420;BME280;29017;51.514;-0.178;2023-02-22T08:10:45;100654.88;;;9.96;98.27
43420;BME280;29017;51.514;-0.178;2023-02-22T08:13:12;100652.94;;;9.98;98.52
43420;BME280;29017;51.514;-0.178;2023-02-22T08:15:40;100657.09;;;10.00;98.42
43420;BME280;29017;51.514;-0.178;2023-02-22T08:18:08;100655.44;;;9.99;98.25
43420;BME280;29017;51.514;-0.178;2023-02-22T08:20:36;100654.59;;;9.99;98.01
43420;BME280;29017;51.514;-0.178;2023-02-22T08:23:04;100650.81;;;10.01;98.00
43420;BME280;29017;51.514;-0.178;2023-02-22T08:25:31;100647.91;;;10.04;97.97
43420;BME280;29017;51.514;-0.178;2023-02-22T08:27:59;100658.78;;;10.09;97.90
43420;BME280;29017;51.514;-0.178;2023-02-22T08:30:27;100658.56;;;10.03;97.33
43420;BME280;29017;51.514;-0.178;2023-02-22T08:32:55;100661.34;;;10.01;97.18
43420;BME280;29017;51.514;-0.178;2023-02-22T08:35:23;100663.69;;;10.04;97.78
43420;BME280;29017;51.514;-0.178;2023-02-22T08:37:51;100662.25;;;10.10;97.99
43420;BME280;29017;51.514;-0.178;2023-02-22T08:40:20;100672.59;;;10.11;97.89
43420;BME280;29017;51.514;-0.178;2023-02-22T08:42:47;100667.50;;;10.10;97.62
43420;BME280;29017;51.514;-0.178;2023-02-22T08:45:15;100667.66;;;10.08;97.32
43420;BME280;29017;51.514;-0.178;2023-02-22T08:47:42;100664.88;;;10.10;97.41
43420;BME280;29017;51.514;-0.178;2023-02-22T08:50:15;100655.00;;;10.12;97.88
43420;BME280;29017;51.514;-0.178;2023-02-22T08:52:42;100653.75;;;10.16;98.13
43420;BME280;29017;51.514;-0.178;2023-02-22T08:55:09;100648.34;;;10.17;97.81
43420;BME280;29017;51.514;-0.178;2023-02-22T08:57:36;100643.78;;;10.19;98.23
43420;BME280;29017;51.514;-0.178;2023-02-22T09:00:04;100652.16;;;10.23;98.58
43420;BME280;29017;51.514;-0.178;2023-02-22T09:02:31;100658.09;;;10.25;98.48
43420;BME280;29017;51.514;-0.178;2023-02-22T09:04:58;100662.22;;;10.27;98.14
43420;BME280;29017;51.514;-0.178;2023-02-22T09:07:25;100662.91;;;10.29;98.04
43420;BME280;29017;51.514;-0.178;2023-02-22T09:09:52;100662.56;;;10.33;97.77
43420;BME280;29017;51.514;-0.178;2023-02-22T09:12:19;100658.97;;;10.34;97.45
43420;BME280;29017;51.514;-0.178;2023-02-22T09:14:46;100658.28;;;10.32;97.27
43420;BME280;29017;51.514;-0.178;2023-02-22T09:17:13;100657.31;;;10.33;97.06
43420;BME280;29017;51.514;-0.178;2023-02-22T09:19:40;100661.44;;;10.35;96.62
43420;BME280;29017;51.514;-0.178;2023-02-22T09:22:07;100658.34;;;10.40;96.74
43420;BME280;29017;51.514;-0.178;2023-02-22T09:24:34;100658.84;;;10.43;96.66
43420;BME280;29017;51.514;-0.178;2023-02-22T09:27:01;100659.38;;;10.47;96.26
43420;BME280;29017;51.514;-0.178;2023-02-22T09:29:30;100659.53;;;10.45;96.14
43420;BME280;29017;51.514;-0.178;2023-02-22T09:31:57;100657.56;;;10.47;96.24
43420;BME280;29017;51.514;-0.178;2023-02-22T09:34:24;100666.28;;;10.48;95.94
43420;BME280;29017;51.514;-0.178;2023-02-22T09:36:54;100660.53;;;10.52;95.99
43420;BME280;29017;51.514;-0.178;2023-02-22T09:39:23;100676.88;;;10.56;95.96
43420;BME280;29017;51.514;-0.178;2023-02-22T09:44:23;100672.09;;;10.59;95.83
43420;BME280;29017;51.514;-0.178;2023-02-22T09:46:56;100673.75;;;10.60;95.80
43420;BME280;29017;51.514;-0.178;2023-02-22T09:49:26;100682.78;;;10.58;95.25
43420;BME280;29017;51.514;-0.178;2023-02-22T09:56:54;100680.97;;;10.58;95.66
43420;BME280;29017;51.514;-0.178;2023-02-22T09:59:25;100674.88;;;10.58;95.44
43420;BME280;29017;51.514;-0.178;2023-02-22T10:01:54;100675.72;;;10.58;95.32
43420;BME280;29017;51.514;-0.178;2023-02-22T10:06:59;100676.22;;;10.62;95.35
43420;BME280;29017;51.514;-0.178;2023-02-22T10:09:33;100674.94;;;10.66;95.28
43420;BME280;29017;51.514;-0.178;2023-02-22T10:12:06;100675.28;;;10.71;95.16
43420;BME280;29017;51.514;-0.178;2023-02-22T10:27:12;100678.78;;;10.88;94.25
43420;BME280;29017;51.514;-0.178;2023-02-22T10:29:42;100670.06;;;10.87;93.93
43420;BME280;29017;51.514;-0.178;2023-02-22T10:32:14;100669.94;;;10.89;93.77
43420;BME280;29017;51.514;-0.178;2023-02-22T10:34:47;100667.16;;;10.90;93.53
43420;BME280;29017;51.514;-0.178;2023-02-22T10:39:42;100671.94;;;10.95;94.25
43420;BME280;29017;51.514;-0.178;2023-02-22T10:42:12;100670.78;;;10.97;94.06
43420;BME280;29017;51.514;-0.178;2023-02-22T10:44:39;100666.84;;;11.01;94.30
43420;BME280;29017;51.514;-0.178;2023-02-22T10:47:08;100668.03;;;11.07;94.24
43420;BME280;29017;51.514;-0.178;2023-02-22T10:49:37;100673.78;;;11.10;94.17
43420;BME280;29017;51.514;-0.178;2023-02-22T10:54:38;100681.22;;;11.15;93.98
43420;BME280;29017;51.514;-0.178;2023-02-22T10:57:05;100677.91;;;11.13;93.60
43420;BME280;29017;51.514;-0.178;2023-02-22T10:59:34;100669.69;;;11.16;93.26
43420;BME280;29017;51.514;-0.178;2023-02-22T11:02:07;100667.72;;;11.18;93.50
43420;BME280;29017;51.514;-0.178;2023-02-22T11:07:08;100675.13;;;11.23;93.35
43420;BME280;29017;51.514;-0.178;2023-02-22T11:12:07;100670.34;;;11.18;93.50
43420;BME280;29017;51.514;-0.178;2023-02-22T11:14:34;100665.41;;;11.15;93.67
43420;BME280;29017;51.514;-0.178;2023-02-22T11:17:05;100668.38;;;11.12;93.94
43420;BME280;29017;51.514;-0.178;2023-02-22T11:19:32;100672.63;;;11.13;93.83
43420;BME280;29017;51.514;-0.178;2023-02-22T11:22:08;100671.66;;;11.14;93.81
43420;BME280;29017;51.514;-0.178;2023-02-22T11:29:45;100673.50;;;11.22;94.59
43420;BME280;29017;51.514;-0.178;2023-02-22T11:32:18;100678.78;;;11.22;94.75
43420;BME280;29017;51.514;-0.178;2023-02-22T11:34:48;100678.28;;;11.26;95.23
43420;BME280;29017;51.514;-0.178;2023-02-22T11:37:34;100682.38;;;11.29;94.87
43420;BME280;29017;51.514;-0.178;2023-02-22T11:42:30;100676.28;;;11.28;94.67
43420;BME280;29017;51.514;-0.178;2023-02-22T11:47:28;100676.16;;;11.30;94.59
43420;BME280;29017;51.514;-0.178;2023-02-22T11:49:55;100677.78;;;11.31;94.20
43420;BME280;29017;51.514;-0.178;2023-02-22T11:52:24;100690.16;;;11.30;93.94
43420;BME280;29017;51.514;-0.178;2023-02-22T11:54:59;100678.78;;;11.30;93.86
43420;BME280;29017;51.514;-0.178;2023-02-22T12:02:30;100677.78;;;11.31;93.75
43420;BME280;29017;51.514;-0.178;2023-02-22T12:15:07;100669.91;;;11.31;92.66
43420;BME280;29017;51.514;-0.178;2023-02-22T12:17:43;100668.91;;;11.32;92.88
43420;BME280;29017;51.514;-0.178;2023-02-22T12:20:27;100673.03;;;11.34;94.05
43420;BME280;29017;51.514;-0.178;2023-02-22T12:25:29;100682.56;;;11.27;92.69
43420;BME280;29017;51.514;-0.178;2023-02-22T12:27:59;100675.66;;;11.26;92.73
43420;BME280;29017;51.514;-0.178;2023-02-22T12:30:38;100672.69;;;11.29;93.25
43420;BME280;29017;51.514;-0.178;2023-02-22T12:33:10;100669.91;;;11.31;93.49
43420;BME280;29017;51.514;-0.178;2023-02-22T12:35:41;100669.06;;;11.30;93.25
43420;BME280;29017;51.514;-0.178;2023-02-22T12:50:38;100673.06;;;11.50;94.48
43420;BME280;29017;51.514;-0.178;2023-02-22T12:55:41;100667.28;;;11.55;94.48
43420;BME280;29017;51.514;-0.178;2023-02-22T12:58:17;100663.00;;;11.54;94.49
43420;BME280;29017;51.514;-0.178;2023-02-22T13:00:50;100674.38;;;11.54;94.53
43420;BME280;29017;51.514;-0.178;2023-02-22T13:05:49;100675.00;;;11.48;94.17
43420;BME280;29017;51.514;-0.178;2023-02-22T13:10:52;100671.09;;;11.52;94.36
43420;BME280;29017;51.514;-0.178;2023-02-22T13:18:27;100672.09;;;11.68;93.97
43420;BME280;29017;51.514;-0.178;2023-02-22T13:25:58;100676.91;;;11.88;93.66
43420;BME280;29017;51.514;-0.178;2023-02-22T13:53:30;100674.44;;;11.95;89.65
43420;BME280;29017;51.514;-0.178;2023-02-22T13:56:00;100668.97;;;12.05;89.78
43420;BME280;29017;51.514;-0.178;2023-02-22T13:58:30;100670.44;;;12.15;90.23
43420;BME280;29017;51.514;-0.178;2023-02-22T14:00:58;100668.66;;;12.24;89.58
43420;BME280;29017;51.514;-0.178;2023-02-22T14:06:02;100676.22;;;12.27;87.85
43420;BME280;29017;51.514;-0.178;2023-02-22T14:11:00;100673.94;;;12.24;88.16
43420;BME280;29017;51.514;-0.178;2023-02-22T14:13:29;100676.25;;;12.19;87.89
43420;BME280;29017;51.514;-0.178;2023-02-22T14:18:26;100677.72;;;12.05;87.93
43420;BME280;29017;51.514;-0.178;2023-02-22T14:35:59;100684.97;;;11.87;86.87
43420;BME280;29017;51.514;-0.178;2023-02-22T14:38:26;100682.84;;;11.82;85.91
43420;BME280;29017;51.514;-0.178;2023-02-22T14:40:55;100684.97;;;11.79;86.52
43420;BME280;29017;51.514;-0.178;2023-02-22T14:43:24;100683.16;;;11.79;86.73
43420;BME280;29017;51.514;-0.178;2023-02-22T14:45:52;100685.63;;;11.81;86.27
43420;BME280;29017;51.514;-0.178;2023-02-22T14:50:53;100686.13;;;11.92;86.14
43420;BME280;29017;51.514;-0.178;2023-02-22T14:58:27;100685.47;;;12.07;83.92
43420;BME280;29017;51.514;-0.178;2023-02-22T15:00:55;100687.13;;;12.08;83.30
43420;BME280;29017;51.514;-0.178;2023-02-22T15:03:25;100697.31;;;12.11;83.11
43420;BME280;29017;51.514;-0.178;2023-02-22T15:08:28;100698.47;;;12.16;82.73
43420;BME280;29017;51.514;-0.178;2023-02-22T15:10:57;100687.59;;;12.19;82.48
43420;BME280;29017;51.514;-0.178;2023-02-22T15:13:26;100686.78;;;12.19;82.18
43420;BME280;29017;51.514;-0.178;2023-02-22T15:15:55;100694.69;;;12.19;82.64
43420;BME280;29017;51.514;-0.178;2023-02-22T15:21:02;100692.22;;;12.09;81.90
43420;BME280;29017;51.514;-0.178;2023-02-22T15:26:02;100701.13;;;12.00;81.72
43420;BME280;29017;51.514;-0.178;2023-02-22T15:28:29;100696.03;;;11.98;80.94
43420;BME280;29017;51.514;-0.178;2023-02-22T15:33:27;100699.81;;;11.96;79.85
43420;BME280;29017;51.514;-0.178;2023-02-22T15:36:00;100704.25;;;11.95;79.21
43420;BME280;29017;51.514;-0.178;2023-02-22T15:38:28;100696.34;;;11.95;79.28
43420;BME280;29017;51.514;-0.178;2023-02-22T15:43:25;100707.03;;;11.94;76.52
43420;BME280;29017;51.514;-0.178;2023-02-22T15:45:56;100715.31;;;11.91;76.17
43420;BME280;29017;51.514;-0.178;2023-02-22T15:48:24;100712.19;;;11.87;75.46
43420;BME280;29017;51.514;-0.178;2023-02-22T15:53:25;100713.31;;;11.85;75.06
43420;BME280;29017;51.514;-0.178;2023-02-22T15:55:54;100714.97;;;11.86;75.69
43420;BME280;29017;51.514;-0.178;2023-02-22T15:58:22;100718.28;;;11.88;75.42
43420;BME280;29017;51.514;-0.178;2023-02-22T16:03:22;100722.72;;;11.87;76.34
43420;BME280;29017;51.514;-0.178;2023-02-22T16:05:54;100721.41;;;11.91;77.43
43420;BME280;29017;51.514;-0.178;2023-02-22T16:10:51;100725.84;;;11.99;77.31
43420;BME280;29017;51.514;-0.178;2023-02-22T16:13:21;100731.94;;;11.99;76.46
43420;BME280;29017;51.514;-0.178;2023-02-22T16:21:01;100732.44;;;11.95;75.92
43420;BME280;29017;51.514;-0.178;2023-02-22T16:23:29;100735.06;;;11.95;76.39
43420;BME280;29017;51.514;-0.178;2023-02-22T16:26:01;100738.69;;;11.94;76.52
43420;BME280;29017;51.514;-0.178;2023-02-22T16:28:29;100738.03;;;11.92;76.01
43420;BME280;29017;51.514;-0.178;2023-02-22T16:30:56;100748.91;;;11.89;76.16
43420;BME280;29017;51.514;-0.178;2023-02-22T16:33:24;100750.91;;;11.87;76.58
43420;BME280;29017;51.514;-0.178;2023-02-22T16:35:55;100750.22;;;11.85;76.49